VIV730 MMMY-KMIA
Flight info
| Callsign | VIV730 |
|---|---|
| Flight time | 2h 40m |
| Altitude | 37000 |
| Route | XOTAT UT11 OTOGU UM580 IRDOV M580 MARCI FROGZ5 |
| Aircraft | A320/M-SDE3FGHIRWY/LB1 |
Departure
| Time | 2026-04-26 13:10 |
|---|---|
| Airport | Monterrey International Airport (MMMY) |
Arrival
| Time | 2026-04-26 15:51 |
|---|---|
| Airport | Miami International Airport (KMIA) |
| Time | Latitude | Longitude | Altitude | Speed | Heading |
|---|---|---|---|---|---|
| 2026-04-26 12:50 | 25.77903 | -100.11392 | 1334 ft | 0 kts | 211° |
| 2026-04-26 12:59 | 25.77909 | -100.11388 | 1333 ft | 4 kts | 211° |
| 2026-04-26 12:59 | 25.77932 | -100.11373 | 1336 ft | 4 kts | 208° |
| 2026-04-26 12:59 | 25.77957 | -100.11360 | 1334 ft | 4 kts | 200° |
| 2026-04-26 12:59 | 25.77982 | -100.11353 | 1332 ft | 4 kts | 171° |
| 2026-04-26 13:00 | 25.77997 | -100.11360 | 1331 ft | 0 kts | 121° |
| 2026-04-26 13:02 | 25.77995 | -100.11357 | 1331 ft | 5 kts | 121° |
| 2026-04-26 13:02 | 25.77953 | -100.11280 | 1331 ft | 14 kts | 121° |
| 2026-04-26 13:03 | 25.77900 | -100.11185 | 1331 ft | 15 kts | 121° |
| 2026-04-26 13:03 | 25.77843 | -100.11079 | 1331 ft | 17 kts | 121° |
| 2026-04-26 13:03 | 25.77779 | -100.10962 | 1331 ft | 19 kts | 121° |
| 2026-04-26 13:03 | 25.77709 | -100.10834 | 1331 ft | 20 kts | 121° |
| 2026-04-26 13:04 | 25.77639 | -100.10703 | 1331 ft | 19 kts | 121° |
| 2026-04-26 13:04 | 25.77567 | -100.10572 | 1331 ft | 21 kts | 122° |
| 2026-04-26 13:04 | 25.77501 | -100.10455 | 1333 ft | 13 kts | 122° |
| 2026-04-26 13:04 | 25.77451 | -100.10366 | 1331 ft | 14 kts | 122° |
| 2026-04-26 13:05 | 25.77395 | -100.10266 | 1331 ft | 17 kts | 122° |
| 2026-04-26 13:05 | 25.77332 | -100.10151 | 1331 ft | 18 kts | 121° |
| 2026-04-26 13:05 | 25.77262 | -100.10025 | 1331 ft | 20 kts | 121° |
| 2026-04-26 13:05 | 25.77187 | -100.09889 | 1331 ft | 21 kts | 121° |
| 2026-04-26 13:06 | 25.77113 | -100.09752 | 1331 ft | 21 kts | 121° |
| 2026-04-26 13:06 | 25.77036 | -100.09608 | 1331 ft | 22 kts | 120° |
| 2026-04-26 13:06 | 25.76958 | -100.09460 | 1331 ft | 18 kts | 120° |
| 2026-04-26 13:06 | 25.76893 | -100.09350 | 1333 ft | 16 kts | 123° |
| 2026-04-26 13:07 | 25.76873 | -100.09286 | 1331 ft | 8 kts | 73° |
| 2026-04-26 13:07 | 25.76922 | -100.09242 | 1333 ft | 10 kts | 29° |
| 2026-04-26 13:07 | 25.76937 | -100.09233 | 1331 ft | 0 kts | 31° |
| 2026-04-26 13:08 | 25.76944 | -100.09228 | 1331 ft | 6 kts | 31° |
| 2026-04-26 13:08 | 25.76997 | -100.09194 | 1331 ft | 6 kts | 31° |
| 2026-04-26 13:09 | 25.77034 | -100.09204 | 1331 ft | 3 kts | 310° |
| 2026-04-26 13:09 | 25.77047 | -100.09227 | 1334 ft | 4 kts | 303° |
| 2026-04-26 13:09 | 25.77094 | -100.09308 | 1331 ft | 36 kts | 303° |
| 2026-04-26 13:09 | 25.77350 | -100.09777 | 1331 ft | 103 kts | 301° |
| 2026-04-26 13:10 | 25.77822 | -100.10620 | 1331 ft | 152 kts | 302° |
| 2026-04-26 13:10 | 25.78436 | -100.11699 | 1634 ft | 171 kts | 303° |
| 2026-04-26 13:10 | 25.79053 | -100.12841 | 2287 ft | 172 kts | 300° |
| 2026-04-26 13:10 | 25.79666 | -100.13969 | 2860 ft | 172 kts | 303° |
| 2026-04-26 13:11 | 25.80629 | -100.14817 | 3058 ft | 192 kts | 347° |
| 2026-04-26 13:11 | 25.81985 | -100.14596 | 3217 ft | 212 kts | 33° |
| 2026-04-26 13:11 | 25.82912 | -100.13266 | 3397 ft | 233 kts | 76° |
| 2026-04-26 13:11 | 25.82886 | -100.11409 | 3664 ft | 255 kts | 105° |
| 2026-04-26 13:12 | 25.82245 | -100.09534 | 4070 ft | 270 kts | 116° |
| 2026-04-26 13:12 | 25.81382 | -100.07661 | 4733 ft | 275 kts | 119° |
| 2026-04-26 13:12 | 25.80469 | -100.05775 | 5409 ft | 279 kts | 119° |
| 2026-04-26 13:12 | 25.79565 | -100.03855 | 6098 ft | 282 kts | 118° |
| 2026-04-26 13:13 | 25.78690 | -100.01898 | 6750 ft | 285 kts | 116° |
| 2026-04-26 13:13 | 25.77832 | -99.99897 | 7378 ft | 289 kts | 115° |
| 2026-04-26 13:13 | 25.76983 | -99.97857 | 8004 ft | 293 kts | 114° |
| 2026-04-26 13:13 | 25.76133 | -99.95782 | 8624 ft | 298 kts | 114° |
| 2026-04-26 13:14 | 25.75277 | -99.93676 | 9238 ft | 302 kts | 114° |
| 2026-04-26 13:14 | 25.74408 | -99.91536 | 9852 ft | 306 kts | 113° |
| 2026-04-26 13:14 | 25.73527 | -99.89369 | 10151 ft | 323 kts | 114° |
| 2026-04-26 13:14 | 25.72574 | -99.87027 | 10263 ft | 344 kts | 114° |
| 2026-04-26 13:15 | 25.71559 | -99.84542 | 10432 ft | 360 kts | 114° |
| 2026-04-26 13:15 | 25.70517 | -99.81992 | 10887 ft | 366 kts | 114° |
| 2026-04-26 13:15 | 25.69458 | -99.79412 | 11415 ft | 369 kts | 114° |
| 2026-04-26 13:15 | 25.68387 | -99.76805 | 11935 ft | 373 kts | 114° |
| 2026-04-26 13:16 | 25.67402 | -99.74132 | 12430 ft | 377 kts | 107° |
| 2026-04-26 13:16 | 25.66644 | -99.71336 | 12941 ft | 381 kts | 107° |
| 2026-04-26 13:16 | 25.65878 | -99.68513 | 13438 ft | 385 kts | 107° |
| 2026-04-26 13:16 | 25.65108 | -99.65704 | 13918 ft | 389 kts | 107° |
| 2026-04-26 13:17 | 25.63514 | -99.59922 | 14893 ft | 395 kts | 107° |
| 2026-04-26 13:17 | 25.62713 | -99.57000 | 15377 ft | 398 kts | 107° |
| 2026-04-26 13:18 | 25.61090 | -99.51093 | 16357 ft | 403 kts | 107° |
| 2026-04-26 13:18 | 25.60268 | -99.48110 | 16846 ft | 407 kts | 107° |
| 2026-04-26 13:18 | 25.58613 | -99.42112 | 17782 ft | 414 kts | 106° |
| 2026-04-26 13:19 | 25.57772 | -99.39058 | 18228 ft | 417 kts | 106° |
| 2026-04-26 13:19 | 25.56922 | -99.35978 | 18662 ft | 420 kts | 107° |
| 2026-04-26 13:19 | 25.56064 | -99.32871 | 19073 ft | 424 kts | 107° |
| 2026-04-26 13:19 | 25.55196 | -99.29735 | 19488 ft | 427 kts | 107° |
| 2026-04-26 13:20 | 25.54322 | -99.26579 | 19907 ft | 430 kts | 107° |
| 2026-04-26 13:20 | 25.53438 | -99.23400 | 20320 ft | 434 kts | 107° |
| 2026-04-26 13:20 | 25.52547 | -99.20196 | 20730 ft | 437 kts | 107° |
| 2026-04-26 13:20 | 25.51646 | -99.16961 | 21133 ft | 441 kts | 107° |
| 2026-04-26 13:21 | 25.50741 | -99.13708 | 21521 ft | 444 kts | 107° |
| 2026-04-26 13:21 | 25.50139 | -99.11542 | 21778 ft | 446 kts | 107° |
| 2026-04-26 13:21 | 25.48923 | -99.07174 | 22276 ft | 451 kts | 107° |
| 2026-04-26 13:21 | 25.47996 | -99.03850 | 22632 ft | 454 kts | 107° |
| 2026-04-26 13:22 | 25.47060 | -99.00500 | 23002 ft | 458 kts | 107° |
| 2026-04-26 13:22 | 25.46116 | -98.97122 | 23362 ft | 461 kts | 108° |
| 2026-04-26 13:22 | 25.45165 | -98.93726 | 23672 ft | 464 kts | 108° |
| 2026-04-26 13:22 | 25.44205 | -98.90302 | 23985 ft | 467 kts | 108° |
| 2026-04-26 13:23 | 25.43240 | -98.86860 | 24297 ft | 470 kts | 108° |
| 2026-04-26 13:23 | 25.42283 | -98.83447 | 24606 ft | 472 kts | 108° |
| 2026-04-26 13:23 | 25.41305 | -98.79967 | 24915 ft | 475 kts | 108° |
| 2026-04-26 13:23 | 25.40320 | -98.76465 | 25212 ft | 478 kts | 108° |
| 2026-04-26 13:24 | 25.39330 | -98.72947 | 25523 ft | 480 kts | 108° |
| 2026-04-26 13:24 | 25.38337 | -98.69412 | 25819 ft | 483 kts | 108° |
| 2026-04-26 13:24 | 25.37338 | -98.65860 | 26142 ft | 485 kts | 108° |
| 2026-04-26 13:24 | 25.36330 | -98.62291 | 26452 ft | 488 kts | 108° |
| 2026-04-26 13:25 | 25.35315 | -98.58699 | 26767 ft | 490 kts | 108° |
| 2026-04-26 13:25 | 25.34293 | -98.55086 | 27073 ft | 493 kts | 108° |
| 2026-04-26 13:25 | 25.33280 | -98.51510 | 27388 ft | 496 kts | 108° |
| 2026-04-26 13:25 | 25.32244 | -98.47858 | 27694 ft | 499 kts | 108° |
| 2026-04-26 13:26 | 25.31205 | -98.44191 | 28003 ft | 501 kts | 108° |
| 2026-04-26 13:26 | 25.30163 | -98.40516 | 28428 ft | 501 kts | 108° |
| 2026-04-26 13:26 | 25.29120 | -98.36845 | 28861 ft | 501 kts | 108° |
| 2026-04-26 13:26 | 25.28074 | -98.33176 | 29300 ft | 501 kts | 108° |
| 2026-04-26 13:27 | 25.27025 | -98.29508 | 29734 ft | 501 kts | 108° |
| 2026-04-26 13:27 | 25.25975 | -98.25843 | 30126 ft | 500 kts | 108° |
| 2026-04-26 13:27 | 25.24924 | -98.22175 | 30507 ft | 500 kts | 108° |
| 2026-04-26 13:27 | 25.23892 | -98.18573 | 30906 ft | 499 kts | 108° |
| 2026-04-26 13:28 | 25.22846 | -98.14923 | 31299 ft | 498 kts | 108° |
| 2026-04-26 13:28 | 25.21802 | -98.11282 | 31696 ft | 497 kts | 108° |
| 2026-04-26 13:28 | 25.20758 | -98.07641 | 32098 ft | 496 kts | 108° |
| 2026-04-26 13:28 | 25.19719 | -98.04014 | 32499 ft | 495 kts | 108° |
| 2026-04-26 13:29 | 25.18681 | -98.00394 | 32902 ft | 494 kts | 108° |
| 2026-04-26 13:29 | 25.17994 | -97.98002 | 33171 ft | 494 kts | 108° |
| 2026-04-26 13:29 | 25.16604 | -97.93175 | 33722 ft | 493 kts | 108° |
| 2026-04-26 13:29 | 25.15579 | -97.89621 | 34053 ft | 492 kts | 107° |
| 2026-04-26 13:30 | 25.14542 | -97.86027 | 34346 ft | 492 kts | 107° |
| 2026-04-26 13:30 | 25.13503 | -97.82428 | 34605 ft | 492 kts | 107° |
| 2026-04-26 13:30 | 25.12463 | -97.78822 | 34870 ft | 493 kts | 107° |
| 2026-04-26 13:30 | 25.11419 | -97.75220 | 35124 ft | 493 kts | 107° |
| 2026-04-26 13:31 | 25.10371 | -97.71615 | 35388 ft | 494 kts | 107° |
| 2026-04-26 13:31 | 25.09324 | -97.68009 | 35638 ft | 494 kts | 107° |
| 2026-04-26 13:31 | 25.08276 | -97.64401 | 35888 ft | 494 kts | 107° |
| 2026-04-26 13:31 | 25.07277 | -97.60962 | 36113 ft | 495 kts | 107° |
| 2026-04-26 13:32 | 25.06241 | -97.57393 | 36369 ft | 495 kts | 107° |
| 2026-04-26 13:32 | 25.05193 | -97.53776 | 36611 ft | 495 kts | 107° |
| 2026-04-26 13:32 | 25.04148 | -97.50169 | 36788 ft | 496 kts | 107° |
| 2026-04-26 13:33 | 25.02016 | -97.42857 | 36824 ft | 506 kts | 107° |
| 2026-04-26 13:33 | 24.99841 | -97.35429 | 36822 ft | 511 kts | 107° |
| 2026-04-26 13:34 | 24.97661 | -97.28004 | 36825 ft | 512 kts | 107° |
| 2026-04-26 13:34 | 24.95474 | -97.20542 | 36830 ft | 512 kts | 107° |
| 2026-04-26 13:35 | 24.93281 | -97.13069 | 36836 ft | 512 kts | 107° |
| 2026-04-26 13:35 | 24.91077 | -97.05603 | 36841 ft | 513 kts | 107° |
| 2026-04-26 13:36 | 24.88866 | -96.98136 | 36851 ft | 513 kts | 107° |
| 2026-04-26 13:36 | 24.86668 | -96.90720 | 36854 ft | 513 kts | 107° |
| 2026-04-26 13:37 | 24.84460 | -96.83255 | 36841 ft | 513 kts | 107° |
| 2026-04-26 13:37 | 24.82245 | -96.75795 | 36858 ft | 512 kts | 107° |
| 2026-04-26 13:38 | 24.80143 | -96.68758 | 36863 ft | 512 kts | 107° |
| 2026-04-26 13:38 | 24.77920 | -96.61317 | 36860 ft | 512 kts | 107° |
| 2026-04-26 13:39 | 24.75698 | -96.53888 | 36863 ft | 511 kts | 107° |
| 2026-04-26 13:39 | 24.73481 | -96.46470 | 36870 ft | 511 kts | 107° |
| 2026-04-26 13:40 | 24.71271 | -96.39087 | 36870 ft | 511 kts | 107° |
| 2026-04-26 13:40 | 24.69039 | -96.31669 | 36874 ft | 510 kts | 107° |
| 2026-04-26 13:41 | 24.66797 | -96.24267 | 36875 ft | 510 kts | 107° |
| 2026-04-26 13:41 | 24.64561 | -96.16865 | 36869 ft | 510 kts | 107° |
| 2026-04-26 13:42 | 24.62343 | -96.09519 | 36873 ft | 510 kts | 107° |
| 2026-04-26 13:42 | 24.60104 | -96.02128 | 36879 ft | 509 kts | 107° |
| 2026-04-26 13:43 | 24.57860 | -95.94750 | 36875 ft | 509 kts | 107° |
| 2026-04-26 13:43 | 24.55612 | -95.87377 | 36879 ft | 509 kts | 107° |
| 2026-04-26 13:44 | 24.53382 | -95.80063 | 36875 ft | 508 kts | 107° |
| 2026-04-26 13:44 | 24.51139 | -95.72702 | 36878 ft | 508 kts | 107° |
| 2026-04-26 13:45 | 24.48889 | -95.65342 | 36876 ft | 508 kts | 107° |
| 2026-04-26 13:45 | 24.46654 | -95.58047 | 36883 ft | 507 kts | 107° |
| 2026-04-26 13:46 | 24.44420 | -95.50758 | 36883 ft | 507 kts | 107° |
| 2026-04-26 13:46 | 24.42182 | -95.43497 | 36878 ft | 507 kts | 107° |
| 2026-04-26 13:47 | 24.39894 | -95.36111 | 36873 ft | 507 kts | 107° |
| 2026-04-26 13:47 | 24.37624 | -95.28799 | 36878 ft | 506 kts | 107° |
| 2026-04-26 13:48 | 24.35362 | -95.21490 | 36880 ft | 505 kts | 107° |
| 2026-04-26 13:48 | 24.33130 | -95.14246 | 36884 ft | 505 kts | 107° |
| 2026-04-26 13:49 | 24.30866 | -95.06965 | 36875 ft | 504 kts | 107° |
| 2026-04-26 13:49 | 24.28596 | -94.99702 | 36874 ft | 504 kts | 107° |
| 2026-04-26 13:50 | 24.26324 | -94.92435 | 36875 ft | 503 kts | 107° |
| 2026-04-26 13:50 | 24.24069 | -94.85253 | 36891 ft | 502 kts | 107° |
| 2026-04-26 13:51 | 24.21801 | -94.78011 | 36886 ft | 502 kts | 107° |
| 2026-04-26 13:51 | 24.19533 | -94.70778 | 36889 ft | 501 kts | 107° |
| 2026-04-26 13:52 | 24.17254 | -94.63557 | 36891 ft | 501 kts | 108° |
| 2026-04-26 13:52 | 24.14990 | -94.56400 | 36894 ft | 501 kts | 108° |
| 2026-04-26 13:53 | 24.12470 | -94.49293 | 36898 ft | 501 kts | 111° |
| 2026-04-26 13:53 | 24.09747 | -94.42277 | 36893 ft | 501 kts | 112° |
| 2026-04-26 13:54 | 24.07043 | -94.35262 | 36890 ft | 500 kts | 111° |
| 2026-04-26 13:54 | 24.04423 | -94.28268 | 36888 ft | 500 kts | 111° |
| 2026-04-26 13:55 | 24.00917 | -94.18842 | 36871 ft | 500 kts | 111° |
| 2026-04-26 13:56 | 23.96535 | -94.07176 | 36893 ft | 499 kts | 111° |
| 2026-04-26 13:56 | 23.93893 | -94.00211 | 36894 ft | 498 kts | 111° |
| 2026-04-26 13:57 | 23.91245 | -93.93213 | 36894 ft | 498 kts | 111° |
| 2026-04-26 13:57 | 23.88601 | -93.86217 | 36893 ft | 498 kts | 111° |
| 2026-04-26 13:58 | 23.85953 | -93.79228 | 36896 ft | 498 kts | 111° |
| 2026-04-26 13:58 | 23.83305 | -93.72242 | 36896 ft | 498 kts | 111° |
| 2026-04-26 13:59 | 23.80677 | -93.65306 | 36894 ft | 497 kts | 111° |
| 2026-04-26 13:59 | 23.78020 | -93.58327 | 36893 ft | 497 kts | 111° |
| 2026-04-26 14:00 | 23.72712 | -93.44385 | 36894 ft | 497 kts | 111° |
| 2026-04-26 14:01 | 23.70046 | -93.37420 | 36882 ft | 497 kts | 112° |
| 2026-04-26 14:01 | 23.67398 | -93.30508 | 36892 ft | 497 kts | 111° |
| 2026-04-26 14:02 | 23.64738 | -93.23555 | 36897 ft | 497 kts | 111° |
| 2026-04-26 14:02 | 23.62076 | -93.16609 | 36900 ft | 496 kts | 112° |
| 2026-04-26 14:03 | 23.59409 | -93.09669 | 36896 ft | 496 kts | 112° |
| 2026-04-26 14:03 | 23.56749 | -93.02781 | 36903 ft | 496 kts | 112° |
| 2026-04-26 14:04 | 23.54073 | -92.95845 | 36902 ft | 496 kts | 112° |
| 2026-04-26 14:04 | 23.51404 | -92.88918 | 36904 ft | 496 kts | 112° |
| 2026-04-26 14:05 | 23.48733 | -92.81997 | 36904 ft | 496 kts | 112° |
| 2026-04-26 14:05 | 23.46066 | -92.75133 | 36902 ft | 496 kts | 112° |
| 2026-04-26 14:06 | 23.43382 | -92.68222 | 36902 ft | 495 kts | 112° |
| 2026-04-26 14:06 | 23.40703 | -92.61317 | 36903 ft | 495 kts | 112° |
| 2026-04-26 14:07 | 23.38020 | -92.54416 | 36903 ft | 495 kts | 112° |
| 2026-04-26 14:07 | 23.35334 | -92.47521 | 36906 ft | 494 kts | 112° |
| 2026-04-26 14:08 | 23.32665 | -92.40700 | 36909 ft | 494 kts | 112° |
| 2026-04-26 14:08 | 23.29977 | -92.33823 | 36910 ft | 494 kts | 112° |
| 2026-04-26 14:09 | 23.27283 | -92.26953 | 36920 ft | 494 kts | 112° |
| 2026-04-26 14:09 | 23.24580 | -92.20086 | 36917 ft | 494 kts | 112° |
| 2026-04-26 14:10 | 23.21887 | -92.13227 | 36917 ft | 493 kts | 112° |
| 2026-04-26 14:10 | 23.19214 | -92.06406 | 36917 ft | 493 kts | 112° |
| 2026-04-26 14:11 | 23.15169 | -91.96121 | 36919 ft | 493 kts | 112° |
| 2026-04-26 14:11 | 23.12468 | -91.89269 | 36922 ft | 493 kts | 112° |
| 2026-04-26 14:12 | 23.09754 | -91.82426 | 36924 ft | 493 kts | 112° |
| 2026-04-26 14:12 | 23.07059 | -91.75629 | 36915 ft | 493 kts | 112° |
| 2026-04-26 14:13 | 23.02993 | -91.65374 | 36921 ft | 493 kts | 112° |
| 2026-04-26 14:14 | 23.00276 | -91.58548 | 36926 ft | 493 kts | 112° |
| 2026-04-26 14:14 | 22.98040 | -91.51556 | 36930 ft | 490 kts | 97° |
| 2026-04-26 14:15 | 22.97975 | -91.44315 | 36924 ft | 481 kts | 76° |
| 2026-04-26 14:15 | 23.00085 | -91.37556 | 36915 ft | 470 kts | 57° |
| 2026-04-26 14:16 | 23.03162 | -91.31267 | 36915 ft | 471 kts | 58° |
| 2026-04-26 14:16 | 23.06206 | -91.25021 | 36921 ft | 472 kts | 58° |
| 2026-04-26 14:17 | 23.09261 | -91.18720 | 36920 ft | 472 kts | 58° |
| 2026-04-26 14:17 | 23.12328 | -91.12408 | 36939 ft | 472 kts | 58° |
| 2026-04-26 14:18 | 23.15394 | -91.06099 | 36948 ft | 472 kts | 58° |
| 2026-04-26 14:18 | 23.18441 | -90.99824 | 36945 ft | 472 kts | 58° |
| 2026-04-26 14:19 | 23.21498 | -90.93512 | 36941 ft | 472 kts | 58° |
| 2026-04-26 14:19 | 23.24559 | -90.87191 | 36947 ft | 472 kts | 58° |
| 2026-04-26 14:20 | 23.27614 | -90.80868 | 36947 ft | 472 kts | 58° |
| 2026-04-26 14:20 | 23.30670 | -90.74538 | 36955 ft | 472 kts | 58° |
| 2026-04-26 14:21 | 23.33726 | -90.68210 | 36958 ft | 472 kts | 58° |
| 2026-04-26 14:21 | 23.36749 | -90.61922 | 36953 ft | 472 kts | 58° |
| 2026-04-26 14:22 | 23.39791 | -90.55593 | 36959 ft | 472 kts | 58° |
| 2026-04-26 14:22 | 23.42837 | -90.49263 | 36965 ft | 472 kts | 58° |
| 2026-04-26 14:23 | 23.45873 | -90.42930 | 36965 ft | 472 kts | 58° |
| 2026-04-26 14:23 | 23.48886 | -90.36635 | 36970 ft | 472 kts | 58° |
| 2026-04-26 14:24 | 23.51920 | -90.30298 | 36960 ft | 471 kts | 58° |
| 2026-04-26 14:24 | 23.54944 | -90.23960 | 36962 ft | 471 kts | 58° |
| 2026-04-26 14:25 | 23.57967 | -90.17621 | 36965 ft | 471 kts | 58° |
| 2026-04-26 14:25 | 23.61297 | -90.11580 | 36962 ft | 467 kts | 51° |
| 2026-04-26 14:26 | 23.64913 | -90.05698 | 36965 ft | 467 kts | 51° |
| 2026-04-26 14:26 | 23.68549 | -89.99831 | 36970 ft | 467 kts | 51° |
| 2026-04-26 14:27 | 23.72166 | -89.93965 | 36975 ft | 467 kts | 51° |
| 2026-04-26 14:27 | 23.75746 | -89.88099 | 36986 ft | 467 kts | 51° |
| 2026-04-26 14:28 | 23.79335 | -89.82204 | 36979 ft | 467 kts | 51° |
| 2026-04-26 14:28 | 23.82934 | -89.76295 | 36974 ft | 467 kts | 51° |
| 2026-04-26 14:29 | 23.86532 | -89.70394 | 36971 ft | 467 kts | 51° |
| 2026-04-26 14:29 | 23.90128 | -89.64492 | 36975 ft | 467 kts | 51° |
| 2026-04-26 14:30 | 23.93725 | -89.58583 | 36973 ft | 467 kts | 51° |
| 2026-04-26 14:30 | 23.97314 | -89.52670 | 36973 ft | 467 kts | 51° |
| 2026-04-26 14:31 | 24.00901 | -89.46752 | 36977 ft | 467 kts | 51° |
| 2026-04-26 14:31 | 24.04487 | -89.40833 | 36980 ft | 467 kts | 51° |
| 2026-04-26 14:32 | 24.08075 | -89.34905 | 36992 ft | 467 kts | 51° |
| 2026-04-26 14:32 | 24.11632 | -89.29012 | 36984 ft | 467 kts | 51° |
| 2026-04-26 14:33 | 24.15215 | -89.23078 | 36997 ft | 467 kts | 51° |
| 2026-04-26 14:33 | 24.18795 | -89.17141 | 36996 ft | 467 kts | 51° |
| 2026-04-26 14:34 | 24.22373 | -89.11203 | 36986 ft | 467 kts | 51° |
| 2026-04-26 14:34 | 24.25947 | -89.05264 | 36989 ft | 467 kts | 51° |
| 2026-04-26 14:35 | 24.29515 | -88.99312 | 36987 ft | 467 kts | 51° |
| 2026-04-26 14:35 | 24.33077 | -88.93362 | 36982 ft | 467 kts | 51° |
| 2026-04-26 14:36 | 24.36648 | -88.87414 | 36983 ft | 467 kts | 51° |
| 2026-04-26 14:36 | 24.40211 | -88.81461 | 37010 ft | 467 kts | 50° |
| 2026-04-26 14:37 | 24.43769 | -88.75504 | 37001 ft | 467 kts | 50° |
| 2026-04-26 14:37 | 24.47326 | -88.69545 | 36996 ft | 467 kts | 50° |
| 2026-04-26 14:38 | 24.50889 | -88.63584 | 36997 ft | 467 kts | 50° |
| 2026-04-26 14:38 | 24.54440 | -88.57618 | 36995 ft | 467 kts | 50° |
| 2026-04-26 14:39 | 24.57988 | -88.51650 | 36990 ft | 467 kts | 50° |
| 2026-04-26 14:39 | 24.61539 | -88.45681 | 37010 ft | 467 kts | 50° |
| 2026-04-26 14:40 | 24.65085 | -88.39699 | 37005 ft | 467 kts | 50° |
| 2026-04-26 14:40 | 24.68022 | -88.34725 | 37001 ft | 467 kts | 50° |
| 2026-04-26 14:41 | 24.71565 | -88.28742 | 36998 ft | 467 kts | 50° |
| 2026-04-26 14:41 | 24.75108 | -88.22761 | 36996 ft | 467 kts | 50° |
| 2026-04-26 14:42 | 24.78651 | -88.16778 | 36999 ft | 467 kts | 50° |
| 2026-04-26 14:42 | 24.82188 | -88.10787 | 36999 ft | 467 kts | 50° |
| 2026-04-26 14:43 | 24.85719 | -88.04779 | 37007 ft | 467 kts | 50° |
| 2026-04-26 14:43 | 24.89245 | -87.98772 | 37010 ft | 467 kts | 50° |
| 2026-04-26 14:44 | 24.92754 | -87.92805 | 37005 ft | 467 kts | 50° |
| 2026-04-26 14:44 | 24.96280 | -87.86793 | 37005 ft | 467 kts | 50° |
| 2026-04-26 14:45 | 24.99801 | -87.80772 | 37024 ft | 467 kts | 50° |
| 2026-04-26 14:45 | 25.03326 | -87.74749 | 37013 ft | 468 kts | 50° |
| 2026-04-26 14:46 | 25.06856 | -87.68725 | 37024 ft | 468 kts | 50° |
| 2026-04-26 14:46 | 25.10380 | -87.62684 | 37015 ft | 468 kts | 50° |
| 2026-04-26 14:47 | 25.13901 | -87.56646 | 37013 ft | 468 kts | 50° |
| 2026-04-26 14:47 | 25.17424 | -87.50608 | 37011 ft | 468 kts | 50° |
| 2026-04-26 14:48 | 25.20944 | -87.44562 | 37010 ft | 468 kts | 50° |
| 2026-04-26 14:48 | 25.24461 | -87.38511 | 37010 ft | 468 kts | 50° |
| 2026-04-26 14:49 | 25.27978 | -87.32449 | 37021 ft | 468 kts | 50° |
| 2026-04-26 14:49 | 25.31487 | -87.26386 | 37044 ft | 468 kts | 50° |
| 2026-04-26 14:50 | 25.34999 | -87.20324 | 37025 ft | 468 kts | 50° |
| 2026-04-26 14:50 | 25.38505 | -87.14260 | 37025 ft | 468 kts | 50° |
| 2026-04-26 14:51 | 25.42008 | -87.08185 | 37011 ft | 468 kts | 50° |
| 2026-04-26 14:51 | 25.45506 | -87.02112 | 37018 ft | 468 kts | 50° |
| 2026-04-26 14:52 | 25.49008 | -86.96041 | 37024 ft | 468 kts | 50° |
| 2026-04-26 14:52 | 25.52479 | -86.90002 | 37024 ft | 468 kts | 50° |
| 2026-04-26 14:53 | 25.55969 | -86.83920 | 37020 ft | 468 kts | 50° |
| 2026-04-26 14:53 | 25.59452 | -86.77835 | 37022 ft | 468 kts | 50° |
| 2026-04-26 14:54 | 25.62940 | -86.71747 | 37036 ft | 468 kts | 49° |
| 2026-04-26 14:54 | 25.66420 | -86.65659 | 37026 ft | 468 kts | 49° |
| 2026-04-26 14:55 | 25.69901 | -86.59575 | 37019 ft | 467 kts | 49° |
| 2026-04-26 14:55 | 25.73379 | -86.53486 | 37025 ft | 467 kts | 50° |
| 2026-04-26 14:56 | 25.76846 | -86.47383 | 37022 ft | 467 kts | 50° |
| 2026-04-26 14:56 | 25.80307 | -86.41290 | 37020 ft | 467 kts | 50° |
| 2026-04-26 14:57 | 25.83771 | -86.35203 | 37022 ft | 466 kts | 50° |
| 2026-04-26 14:57 | 25.87234 | -86.29115 | 37018 ft | 466 kts | 50° |
| 2026-04-26 14:58 | 25.90694 | -86.23017 | 37044 ft | 466 kts | 50° |
| 2026-04-26 14:58 | 25.94145 | -86.16917 | 37035 ft | 466 kts | 50° |
| 2026-04-26 14:59 | 25.97586 | -86.10813 | 37030 ft | 466 kts | 50° |
| 2026-04-26 14:59 | 26.01024 | -86.04711 | 37029 ft | 465 kts | 50° |
| 2026-04-26 15:00 | 26.03807 | -85.98138 | 37009 ft | 482 kts | 68° |
| 2026-04-26 15:00 | 26.04442 | -85.94449 | 37008 ft | 491 kts | 79° |
| 2026-04-26 15:00 | 26.04514 | -85.90622 | 37012 ft | 497 kts | 86° |
| 2026-04-26 15:01 | 26.04331 | -85.82934 | 37008 ft | 498 kts | 86° |
| 2026-04-26 15:01 | 26.04157 | -85.75242 | 37008 ft | 498 kts | 86° |
| 2026-04-26 15:02 | 26.03988 | -85.67546 | 37009 ft | 498 kts | 86° |
| 2026-04-26 15:02 | 26.03821 | -85.59849 | 37009 ft | 498 kts | 86° |
| 2026-04-26 15:03 | 26.03642 | -85.52194 | 37010 ft | 498 kts | 86° |
| 2026-04-26 15:03 | 26.03448 | -85.44491 | 37011 ft | 499 kts | 86° |
| 2026-04-26 15:04 | 26.03262 | -85.36787 | 37027 ft | 498 kts | 86° |
| 2026-04-26 15:04 | 26.03074 | -85.29092 | 37024 ft | 498 kts | 86° |
| 2026-04-26 15:05 | 26.02877 | -85.21403 | 37022 ft | 497 kts | 86° |
| 2026-04-26 15:05 | 26.02680 | -85.13712 | 37015 ft | 497 kts | 86° |
| 2026-04-26 15:06 | 26.02478 | -85.06028 | 37017 ft | 497 kts | 86° |
| 2026-04-26 15:06 | 26.02271 | -84.98353 | 37027 ft | 497 kts | 86° |
| 2026-04-26 15:07 | 26.01966 | -84.86847 | 37022 ft | 496 kts | 87° |
| 2026-04-26 15:07 | 26.01711 | -84.79186 | 37020 ft | 496 kts | 88° |
| 2026-04-26 15:08 | 26.01396 | -84.71525 | 37018 ft | 496 kts | 88° |
| 2026-04-26 15:08 | 26.01083 | -84.63920 | 37037 ft | 496 kts | 88° |
| 2026-04-26 15:09 | 26.00786 | -84.56277 | 37031 ft | 495 kts | 88° |
| 2026-04-26 15:09 | 26.00495 | -84.48643 | 37026 ft | 494 kts | 88° |
| 2026-04-26 15:10 | 26.00247 | -84.42311 | 37023 ft | 493 kts | 88° |
| 2026-04-26 15:10 | 25.99891 | -84.33458 | 37019 ft | 493 kts | 88° |
| 2026-04-26 15:11 | 25.99571 | -84.25846 | 37032 ft | 493 kts | 88° |
| 2026-04-26 15:11 | 25.99249 | -84.18242 | 37026 ft | 492 kts | 88° |
| 2026-04-26 15:12 | 25.98934 | -84.10649 | 37022 ft | 492 kts | 88° |
| 2026-04-26 15:12 | 25.98611 | -84.03055 | 37019 ft | 491 kts | 88° |
| 2026-04-26 15:13 | 25.98289 | -83.95521 | 37016 ft | 491 kts | 88° |
| 2026-04-26 15:13 | 25.97958 | -83.87941 | 37026 ft | 491 kts | 89° |
| 2026-04-26 15:14 | 25.97621 | -83.80368 | 37027 ft | 490 kts | 89° |
| 2026-04-26 15:14 | 25.97286 | -83.72804 | 37024 ft | 490 kts | 89° |
| 2026-04-26 15:15 | 25.96953 | -83.65249 | 37021 ft | 489 kts | 89° |
| 2026-04-26 15:15 | 25.96608 | -83.57747 | 37019 ft | 489 kts | 89° |
| 2026-04-26 15:16 | 25.96257 | -83.50192 | 37031 ft | 489 kts | 89° |
| 2026-04-26 15:16 | 25.95965 | -83.42906 | 37803 ft | 487 kts | 89° |
| 2026-04-26 15:21 | 25.95891 | -83.40737 | 38061 ft | 472 kts | 92° |
| 2026-04-26 15:21 | 25.95773 | -83.37251 | 39248 ft | 434 kts | 92° |
| 2026-04-26 15:21 | 25.95660 | -83.33984 | 39698 ft | 419 kts | 92° |
| 2026-04-26 15:21 | 25.95548 | -83.30712 | 38715 ft | 432 kts | 92° |
| 2026-04-26 15:22 | 25.95432 | -83.27376 | 37858 ft | 440 kts | 92° |
| 2026-04-26 15:22 | 25.95309 | -83.23960 | 37250 ft | 444 kts | 92° |
| 2026-04-26 15:22 | 25.95179 | -83.20529 | 37031 ft | 447 kts | 92° |
| 2026-04-26 15:22 | 25.95046 | -83.17061 | 36999 ft | 451 kts | 92° |
| 2026-04-26 15:23 | 25.94774 | -83.10059 | 37009 ft | 455 kts | 92° |
| 2026-04-26 15:23 | 25.94506 | -83.03038 | 37009 ft | 455 kts | 92° |
| 2026-04-26 15:24 | 25.94230 | -82.96061 | 37009 ft | 455 kts | 92° |
| 2026-04-26 15:24 | 25.93953 | -82.89041 | 37009 ft | 455 kts | 92° |
| 2026-04-26 15:25 | 25.93722 | -82.83209 | 37009 ft | 455 kts | 92° |
| 2026-04-26 15:25 | 25.93389 | -82.75003 | 37009 ft | 455 kts | 92° |
| 2026-04-26 15:26 | 25.93095 | -82.68028 | 37009 ft | 455 kts | 92° |
| 2026-04-26 15:26 | 25.92801 | -82.61005 | 37009 ft | 455 kts | 92° |
| 2026-04-26 15:27 | 25.92505 | -82.54008 | 36631 ft | 452 kts | 92° |
| 2026-04-26 15:27 | 25.92356 | -82.50514 | 35944 ft | 453 kts | 92° |
| 2026-04-26 15:27 | 25.92204 | -82.47016 | 35218 ft | 454 kts | 92° |
| 2026-04-26 15:28 | 25.92052 | -82.43519 | 34730 ft | 450 kts | 92° |
| 2026-04-26 15:28 | 25.91900 | -82.40064 | 34170 ft | 447 kts | 92° |
| 2026-04-26 15:28 | 25.91750 | -82.36655 | 33509 ft | 447 kts | 92° |
| 2026-04-26 15:28 | 25.91599 | -82.33206 | 32877 ft | 446 kts | 92° |
| 2026-04-26 15:29 | 25.91449 | -82.29768 | 32139 ft | 447 kts | 92° |
| 2026-04-26 15:29 | 25.91298 | -82.26318 | 31321 ft | 450 kts | 92° |
| 2026-04-26 15:29 | 25.90994 | -82.19378 | 29903 ft | 447 kts | 93° |
| 2026-04-26 15:30 | 25.90685 | -82.12525 | 28640 ft | 441 kts | 93° |
| 2026-04-26 15:30 | 25.90533 | -82.09193 | 28096 ft | 435 kts | 93° |
| 2026-04-26 15:30 | 25.90382 | -82.05855 | 27513 ft | 431 kts | 93° |
| 2026-04-26 15:31 | 25.90232 | -82.02549 | 26972 ft | 425 kts | 93° |
| 2026-04-26 15:31 | 25.89936 | -81.96067 | 25910 ft | 415 kts | 93° |
| 2026-04-26 15:31 | 25.89788 | -81.92881 | 25393 ft | 410 kts | 93° |
| 2026-04-26 15:32 | 25.89546 | -81.87688 | 24583 ft | 401 kts | 93° |
| 2026-04-26 15:32 | 25.89353 | -81.83619 | 23969 ft | 394 kts | 93° |
| 2026-04-26 15:32 | 25.89210 | -81.80601 | 23513 ft | 390 kts | 93° |
| 2026-04-26 15:33 | 25.89128 | -81.77616 | 23088 ft | 385 kts | 88° |
| 2026-04-26 15:33 | 25.89231 | -81.74657 | 22675 ft | 381 kts | 88° |
| 2026-04-26 15:33 | 25.89330 | -81.71740 | 22260 ft | 376 kts | 88° |
| 2026-04-26 15:33 | 25.89427 | -81.68851 | 21834 ft | 372 kts | 88° |
| 2026-04-26 15:34 | 25.89519 | -81.65987 | 21413 ft | 368 kts | 88° |
| 2026-04-26 15:34 | 25.89607 | -81.63157 | 20980 ft | 365 kts | 88° |
| 2026-04-26 15:34 | 25.89692 | -81.60397 | 20555 ft | 361 kts | 88° |
| 2026-04-26 15:34 | 25.89779 | -81.57622 | 20100 ft | 359 kts | 88° |
| 2026-04-26 15:35 | 25.89868 | -81.54840 | 19720 ft | 360 kts | 88° |
| 2026-04-26 15:35 | 25.89957 | -81.52066 | 19345 ft | 359 kts | 88° |
| 2026-04-26 15:35 | 25.90044 | -81.49305 | 18959 ft | 357 kts | 88° |
| 2026-04-26 15:35 | 25.90129 | -81.46550 | 18405 ft | 357 kts | 88° |
| 2026-04-26 15:36 | 25.90212 | -81.43806 | 17922 ft | 354 kts | 88° |
| 2026-04-26 15:36 | 25.90296 | -81.41084 | 17446 ft | 351 kts | 88° |
| 2026-04-26 15:36 | 25.90379 | -81.38385 | 16971 ft | 349 kts | 88° |
| 2026-04-26 15:36 | 25.90460 | -81.35739 | 16500 ft | 346 kts | 88° |
| 2026-04-26 15:37 | 25.90540 | -81.33075 | 16025 ft | 344 kts | 88° |
| 2026-04-26 15:37 | 25.90621 | -81.30432 | 15549 ft | 341 kts | 88° |
| 2026-04-26 15:37 | 25.90702 | -81.27810 | 15087 ft | 339 kts | 88° |
| 2026-04-26 15:37 | 25.90779 | -81.25218 | 14684 ft | 334 kts | 88° |
| 2026-04-26 15:38 | 25.90855 | -81.22648 | 14245 ft | 331 kts | 88° |
| 2026-04-26 15:38 | 25.90929 | -81.20097 | 13801 ft | 329 kts | 88° |
| 2026-04-26 15:38 | 25.90998 | -81.17565 | 13355 ft | 327 kts | 88° |
| 2026-04-26 15:38 | 25.91057 | -81.15081 | 12924 ft | 325 kts | 88° |
| 2026-04-26 15:39 | 25.91115 | -81.12582 | 12488 ft | 323 kts | 88° |
| 2026-04-26 15:39 | 25.91171 | -81.10096 | 12052 ft | 321 kts | 88° |
| 2026-04-26 15:39 | 25.91225 | -81.07625 | 11618 ft | 319 kts | 89° |
| 2026-04-26 15:39 | 25.91259 | -81.06002 | 11347 ft | 318 kts | 90° |
| 2026-04-26 15:40 | 25.90881 | -81.02838 | 11160 ft | 303 kts | 105° |
| 2026-04-26 15:40 | 25.90146 | -81.00665 | 10867 ft | 299 kts | 113° |
| 2026-04-26 15:40 | 25.89329 | -80.98553 | 10558 ft | 295 kts | 113° |
| 2026-04-26 15:40 | 25.88541 | -80.96502 | 10265 ft | 292 kts | 113° |
| 2026-04-26 15:41 | 25.87752 | -80.94440 | 9966 ft | 289 kts | 113° |
| 2026-04-26 15:41 | 25.86974 | -80.92403 | 9746 ft | 283 kts | 113° |
| 2026-04-26 15:41 | 25.86211 | -80.90407 | 9480 ft | 279 kts | 113° |
| 2026-04-26 15:41 | 25.85452 | -80.88427 | 9129 ft | 279 kts | 113° |
| 2026-04-26 15:42 | 25.84696 | -80.86454 | 8851 ft | 277 kts | 113° |
| 2026-04-26 15:42 | 25.83946 | -80.84496 | 8536 ft | 275 kts | 113° |
| 2026-04-26 15:42 | 25.83198 | -80.82551 | 8201 ft | 274 kts | 113° |
| 2026-04-26 15:42 | 25.82460 | -80.80635 | 7891 ft | 272 kts | 113° |
| 2026-04-26 15:43 | 25.81720 | -80.78714 | 7567 ft | 271 kts | 113° |
| 2026-04-26 15:43 | 25.80978 | -80.76791 | 7242 ft | 270 kts | 113° |
| 2026-04-26 15:43 | 25.79494 | -80.72952 | 6601 ft | 270 kts | 113° |
| 2026-04-26 15:44 | 25.78764 | -80.71065 | 6448 ft | 262 kts | 113° |
| 2026-04-26 15:44 | 25.77376 | -80.67313 | 5663 ft | 267 kts | 105° |
| 2026-04-26 15:44 | 25.77140 | -80.65274 | 5318 ft | 266 kts | 89° |
| 2026-04-26 15:45 | 25.77335 | -80.61215 | 4693 ft | 264 kts | 87° |
| 2026-04-26 15:45 | 25.77424 | -80.59184 | 4377 ft | 263 kts | 87° |
| 2026-04-26 15:46 | 25.77598 | -80.55184 | 4020 ft | 250 kts | 87° |
| 2026-04-26 15:46 | 25.77680 | -80.53291 | 3847 ft | 243 kts | 87° |
| 2026-04-26 15:46 | 25.77761 | -80.51421 | 3566 ft | 242 kts | 87° |
| 2026-04-26 15:46 | 25.77787 | -80.50817 | 3469 ft | 242 kts | 87° |
| 2026-04-26 15:47 | 25.77918 | -80.47773 | 2944 ft | 230 kts | 87° |
| 2026-04-26 15:47 | 25.78064 | -80.44366 | 2361 ft | 211 kts | 87° |
| 2026-04-26 15:47 | 25.78131 | -80.42804 | 2090 ft | 197 kts | 87° |
| 2026-04-26 15:48 | 25.78193 | -80.41333 | 1861 ft | 184 kts | 87° |
| 2026-04-26 15:48 | 25.78251 | -80.39962 | 1613 ft | 172 kts | 87° |
| 2026-04-26 15:48 | 25.78306 | -80.38677 | 1378 ft | 162 kts | 87° |
| 2026-04-26 15:48 | 25.78356 | -80.37491 | 1176 ft | 153 kts | 87° |
| 2026-04-26 15:49 | 25.78405 | -80.36343 | 995 ft | 147 kts | 87° |
| 2026-04-26 15:49 | 25.78451 | -80.35239 | 795 ft | 145 kts | 87° |
| 2026-04-26 15:49 | 25.78498 | -80.34126 | 601 ft | 144 kts | 87° |
| 2026-04-26 15:49 | 25.78544 | -80.33022 | 410 ft | 143 kts | 87° |
| 2026-04-26 15:50 | 25.78591 | -80.31919 | 220 ft | 143 kts | 87° |
| 2026-04-26 15:50 | 25.78636 | -80.30822 | 35 ft | 143 kts | 87° |
| 2026-04-26 15:50 | 25.78677 | -80.29828 | 15 ft | 110 kts | 88° |
| 2026-04-26 15:50 | 25.78704 | -80.29178 | 16 ft | 61 kts | 87° |
| 2026-04-26 15:51 | 25.78721 | -80.28872 | 15 ft | 34 kts | 86° |
| 2026-04-26 15:51 | 25.78770 | -80.28726 | 15 ft | 17 kts | 47° |
| 2026-04-26 15:51 | 25.78788 | -80.28708 | 15 ft | 0 kts | 41° |
| 2026-04-26 15:52 | 25.78804 | -80.28692 | 14 ft | 11 kts | 41° |
| 2026-04-26 15:52 | 25.78849 | -80.28650 | 16 ft | 14 kts | 40° |
| 2026-04-26 15:53 | 25.78963 | -80.28558 | 15 ft | 13 kts | 35° |
| 2026-04-26 15:53 | 25.78968 | -80.28555 | 16 ft | 0 kts | 35° |
| 2026-04-26 15:54 | 25.78986 | -80.28540 | 15 ft | 7 kts | 36° |
| 2026-04-26 15:54 | 25.79039 | -80.28498 | 15 ft | 11 kts | 36° |
| 2026-04-26 15:54 | 25.79116 | -80.28444 | 15 ft | 15 kts | 29° |
| 2026-04-26 15:54 | 25.79195 | -80.28399 | 15 ft | 11 kts | 22° |
| 2026-04-26 15:55 | 25.79231 | -80.28368 | 15 ft | 6 kts | 86° |
| 2026-04-26 15:55 | 25.79225 | -80.28326 | 17 ft | 3 kts | 107° |
| 2026-04-26 15:55 | 25.79219 | -80.28296 | 15 ft | 4 kts | 97° |
| 2026-04-26 15:55 | 25.79218 | -80.28283 | 15 ft | 0 kts | 94° |